sensor_id;sensor_type;location;lat;lon;timestamp;temperature;humidity
42145;DHT22;27813;43.516;11.890;2022-12-26T00:00:46;11.20;98.40
42145;DHT22;27813;43.516;11.890;2022-12-26T00:04:51;11.30;98.50
42145;DHT22;27813;43.516;11.890;2022-12-26T00:08:58;11.30;98.50
42145;DHT22;27813;43.516;11.890;2022-12-26T00:13:03;11.30;98.50
42145;DHT22;27813;43.516;11.890;2022-12-26T00:17:27;11.30;98.40
42145;DHT22;27813;43.516;11.890;2022-12-26T00:21:35;11.30;98.50
42145;DHT22;27813;43.516;11.890;2022-12-26T00:25:40;11.40;98.50
42145;DHT22;27813;43.516;11.890;2022-12-26T00:29:43;11.30;98.50
42145;DHT22;27813;43.516;11.890;2022-12-26T05:32:50;11.30;98.40
42145;DHT22;27813;43.516;11.890;2022-12-26T05:37:13;11.30;98.40
42145;DHT22;27813;43.516;11.890;2022-12-26T05:41:17;11.30;98.40
42145;DHT22;27813;43.516;11.890;2022-12-26T05:45:22;11.30;98.40
42145;DHT22;27813;43.516;11.890;2022-12-26T05:49:26;11.30;98.40
42145;DHT22;27813;43.516;11.890;2022-12-26T05:53:31;11.30;98.40
42145;DHT22;27813;43.516;11.890;2022-12-26T05:57:36;11.30;98.40
42145;DHT22;27813;43.516;11.890;2022-12-26T06:01:40;11.30;98.40
42145;DHT22;27813;43.516;11.890;2022-12-26T06:05:45;11.30;98.40
42145;DHT22;27813;43.516;11.890;2022-12-26T06:09:49;11.30;98.40
42145;DHT22;27813;43.516;11.890;2022-12-26T06:13:54;11.30;98.40
42145;DHT22;27813;43.516;11.890;2022-12-26T06:17:58;11.30;98.40
42145;DHT22;27813;43.516;11.890;2022-12-26T06:22:02;11.30;98.40
42145;DHT22;27813;43.516;11.890;2022-12-26T06:26:07;11.30;98.40
42145;DHT22;27813;43.516;11.890;2022-12-26T06:30:12;11.20;98.40
42145;DHT22;27813;43.516;11.890;2022-12-26T06:34:17;11.30;98.40
42145;DHT22;27813;43.516;11.890;2022-12-26T06:38:21;11.20;98.40
42145;DHT22;27813;43.516;11.890;2022-12-26T06:42:30;11.30;98.40
42145;DHT22;27813;43.516;11.890;2022-12-26T06:46:34;11.30;98.40
42145;DHT22;27813;43.516;11.890;2022-12-26T06:50:38;11.30;98.40
42145;DHT22;27813;43.516;11.890;2022-12-26T06:54:42;11.40;98.50
42145;DHT22;27813;43.516;11.890;2022-12-26T06:58:57;11.30;98.40
42145;DHT22;27813;43.516;11.890;2022-12-26T07:03:02;11.30;98.40
42145;DHT22;27813;43.516;11.890;2022-12-26T07:07:06;11.30;98.40
42145;DHT22;27813;43.516;11.890;2022-12-26T07:11:15;11.40;98.50
42145;DHT22;27813;43.516;11.890;2022-12-26T07:15:19;11.40;98.50
42145;DHT22;27813;43.516;11.890;2022-12-26T07:19:24;11.40;98.50
42145;DHT22;27813;43.516;11.890;2022-12-26T07:23:28;11.50;98.50
42145;DHT22;27813;43.516;11.890;2022-12-26T07:27:34;11.50;98.50
42145;DHT22;27813;43.516;11.890;2022-12-26T07:31:39;11.50;98.50
42145;DHT22;27813;43.516;11.890;2022-12-26T07:35:45;11.60;98.50
42145;DHT22;27813;43.516;11.890;2022-12-26T07:39:49;11.70;98.50
42145;DHT22;27813;43.516;11.890;2022-12-26T07:44:16;11.70;98.50
42145;DHT22;27813;43.516;11.890;2022-12-26T07:49:13;11.80;98.60
42145;DHT22;27813;43.516;11.890;2022-12-26T07:53:18;11.90;98.60
42145;DHT22;27813;43.516;11.890;2022-12-26T07:57:22;11.90;98.50
42145;DHT22;27813;43.516;11.890;2022-12-26T08:01:47;12.00;98.50
42145;DHT22;27813;43.516;11.890;2022-12-26T08:05:52;12.00;98.50
42145;DHT22;27813;43.516;11.890;2022-12-26T08:09:56;12.00;98.40
42145;DHT22;27813;43.516;11.890;2022-12-26T08:14:00;12.00;98.40
42145;DHT22;27813;43.516;11.890;2022-12-26T08:18:05;12.00;98.40
42145;DHT22;27813;43.516;11.890;2022-12-26T08:22:10;12.10;98.40
42145;DHT22;27813;43.516;11.890;2022-12-26T08:26:14;12.20;98.50
42145;DHT22;27813;43.516;11.890;2022-12-26T08:30:23;12.20;98.50
42145;DHT22;27813;43.516;11.890;2022-12-26T08:34:32;12.30;98.50
42145;DHT22;27813;43.516;11.890;2022-12-26T08:38:37;12.30;98.50
42145;DHT22;27813;43.516;11.890;2022-12-26T08:42:42;12.40;98.40
42145;DHT22;27813;43.516;11.890;2022-12-26T08:47:06;12.40;98.40
42145;DHT22;27813;43.516;11.890;2022-12-26T08:51:16;12.50;98.50
42145;DHT22;27813;43.516;11.890;2022-12-26T08:55:22;12.50;98.40
42145;DHT22;27813;43.516;11.890;2022-12-26T08:59:27;12.60;98.30
42145;DHT22;27813;43.516;11.890;2022-12-26T09:03:31;12.60;98.30
42145;DHT22;27813;43.516;11.890;2022-12-26T09:07:35;12.60;98.30
42145;DHT22;27813;43.516;11.890;2022-12-26T09:11:40;12.60;98.30
42145;DHT22;27813;43.516;11.890;2022-12-26T09:15:45;12.70;98.30
42145;DHT22;27813;43.516;11.890;2022-12-26T09:19:50;12.70;98.30
42145;DHT22;27813;43.516;11.890;2022-12-26T09:23:55;12.70;98.30
42145;DHT22;27813;43.516;11.890;2022-12-26T09:28:00;12.80;98.40
42145;DHT22;27813;43.516;11.890;2022-12-26T09:36:59;13.00;98.30
42145;DHT22;27813;43.516;11.890;2022-12-26T09:45:17;13.10;98.30
42145;DHT22;27813;43.516;11.890;2022-12-26T09:49:34;13.10;98.20
42145;DHT22;27813;43.516;11.890;2022-12-26T09:54:03;13.20;98.20
42145;DHT22;27813;43.516;11.890;2022-12-26T09:58:33;13.30;98.10
42145;DHT22;27813;43.516;11.890;2022-12-26T10:03:07;13.30;98.10
42145;DHT22;27813;43.516;11.890;2022-12-26T10:08:00;13.40;98.10
42145;DHT22;27813;43.516;11.890;2022-12-26T10:20:43;13.60;98.10
42145;DHT22;27813;43.516;11.890;2022-12-26T10:24:50;13.80;98.20
42145;DHT22;27813;43.516;11.890;2022-12-26T10:33:45;14.00;97.90
42145;DHT22;27813;43.516;11.890;2022-12-26T10:42:56;14.20;97.80
42145;DHT22;27813;43.516;11.890;2022-12-26T10:51:27;14.40;97.80
42145;DHT22;27813;43.516;11.890;2022-12-26T10:55:36;14.50;97.70
42145;DHT22;27813;43.516;11.890;2022-12-26T10:59:45;14.50;97.60
42145;DHT22;27813;43.516;11.890;2022-12-26T11:03:56;14.50;97.60
42145;DHT22;27813;43.516;11.890;2022-12-26T11:08:29;14.50;97.60
42145;DHT22;27813;43.516;11.890;2022-12-26T11:12:54;14.70;97.60
42145;DHT22;27813;43.516;11.890;2022-12-26T11:17:08;14.70;97.60
42145;DHT22;27813;43.516;11.890;2022-12-26T11:21:37;14.90;97.50
42145;DHT22;27813;43.516;11.890;2022-12-26T11:25:55;15.00;97.60
42145;DHT22;27813;43.516;11.890;2022-12-26T11:30:30;15.00;97.40
42145;DHT22;27813;43.516;11.890;2022-12-26T11:34:42;15.00;97.40
42145;DHT22;27813;43.516;11.890;2022-12-26T11:39:00;15.10;97.40
42145;DHT22;27813;43.516;11.890;2022-12-26T11:43:14;15.20;97.50
42145;DHT22;27813;43.516;11.890;2022-12-26T11:47:26;15.30;97.60
42145;DHT22;27813;43.516;11.890;2022-12-26T11:51:42;15.40;97.40
42145;DHT22;27813;43.516;11.890;2022-12-26T11:56:02;15.50;97.40
42145;DHT22;27813;43.516;11.890;2022-12-26T12:00:17;15.60;97.40
42145;DHT22;27813;43.516;11.890;2022-12-26T12:04:22;15.70;97.20
42145;DHT22;27813;43.516;11.890;2022-12-26T12:13:26;15.60;97.20
42145;DHT22;27813;43.516;11.890;2022-12-26T12:27:03;15.40;97.30
42145;DHT22;27813;43.516;11.890;2022-12-26T12:44:51;15.50;97.50
42145;DHT22;27813;43.516;11.890;2022-12-26T12:53:38;15.50;97.50
42145;DHT22;27813;43.516;11.890;2022-12-26T12:58:35;15.50;97.50
42145;DHT22;27813;43.516;11.890;2022-12-26T13:02:34;15.50;97.50
42145;DHT22;27813;43.516;11.890;2022-12-26T13:07:08;15.50;97.50
42145;DHT22;27813;43.516;11.890;2022-12-26T13:11:44;15.50;97.50
42145;DHT22;27813;43.516;11.890;2022-12-26T13:15:57;15.50;97.40
42145;DHT22;27813;43.516;11.890;2022-12-26T13:20:24;15.50;97.50
42145;DHT22;27813;43.516;11.890;2022-12-26T13:24:43;15.50;97.60
42145;DHT22;27813;43.516;11.890;2022-12-26T13:28:59;15.60;97.50
42145;DHT22;27813;43.516;11.890;2022-12-26T13:33:13;15.70;97.40
42145;DHT22;27813;43.516;11.890;2022-12-26T13:42:17;15.60;97.40
42145;DHT22;27813;43.516;11.890;2022-12-26T13:59:42;15.60;97.50
42145;DHT22;27813;43.516;11.890;2022-12-26T14:04:30;15.60;97.50
42145;DHT22;27813;43.516;11.890;2022-12-26T14:26:28;15.40;97.60
42145;DHT22;27813;43.516;11.890;2022-12-26T14:35:27;15.50;97.70
42145;DHT22;27813;43.516;11.890;2022-12-26T14:44:14;15.30;97.50
42145;DHT22;27813;43.516;11.890;2022-12-26T14:52:35;15.10;97.60
42145;DHT22;27813;43.516;11.890;2022-12-26T14:56:43;15.00;97.50
42145;DHT22;27813;43.516;11.890;2022-12-26T15:00:48;14.90;97.70
42145;DHT22;27813;43.516;11.890;2022-12-26T15:05:21;14.90;97.90
42145;DHT22;27813;43.516;11.890;2022-12-26T15:35:43;13.80;97.50
42145;DHT22;27813;43.516;11.890;2022-12-26T15:40:11;13.70;97.70
42145;DHT22;27813;43.516;11.890;2022-12-26T15:49:17;13.50;97.60
42145;DHT22;27813;43.516;11.890;2022-12-26T15:53:58;13.20;97.40
42145;DHT22;27813;43.516;11.890;2022-12-26T16:11:19;12.60;97.20
42145;DHT22;27813;43.516;11.890;2022-12-26T16:15:26;12.50;97.20
42145;DHT22;27813;43.516;11.890;2022-12-26T16:19:34;12.30;97.00
42145;DHT22;27813;43.516;11.890;2022-12-26T16:23:39;12.10;96.80
42145;DHT22;27813;43.516;11.890;2022-12-26T16:27:46;12.00;96.80
42145;DHT22;27813;43.516;11.890;2022-12-26T16:31:53;11.90;96.80
42145;DHT22;27813;43.516;11.890;2022-12-26T16:36:17;11.90;96.90
42145;DHT22;27813;43.516;11.890;2022-12-26T16:40:50;11.80;97.10
42145;DHT22;27813;43.516;11.890;2022-12-26T16:44:55;12.00;97.30
42145;DHT22;27813;43.516;11.890;2022-12-26T16:49:09;12.00;97.50
42145;DHT22;27813;43.516;11.890;2022-12-26T16:53:18;12.20;97.80
42145;DHT22;27813;43.516;11.890;2022-12-26T16:57:26;12.30;97.90
42145;DHT22;27813;43.516;11.890;2022-12-26T17:01:33;12.30;97.90
42145;DHT22;27813;43.516;11.890;2022-12-26T17:05:38;12.40;97.90
42145;DHT22;27813;43.516;11.890;2022-12-26T17:09:55;12.50;98.00
42145;DHT22;27813;43.516;11.890;2022-12-26T17:14:03;12.60;98.10
42145;DHT22;27813;43.516;11.890;2022-12-26T17:18:40;12.70;98.20
42145;DHT22;27813;43.516;11.890;2022-12-26T17:22:45;12.70;98.30
42145;DHT22;27813;43.516;11.890;2022-12-26T17:26:50;12.80;98.30
42145;DHT22;27813;43.516;11.890;2022-12-26T17:31:12;12.90;98.40
42145;DHT22;27813;43.516;11.890;2022-12-26T17:35:26;12.90;98.40
42145;DHT22;27813;43.516;11.890;2022-12-26T17:39:30;12.90;98.30
42145;DHT22;27813;43.516;11.890;2022-12-26T17:43:38;12.80;98.30
42145;DHT22;27813;43.516;11.890;2022-12-26T17:47:44;12.80;98.30
42145;DHT22;27813;43.516;11.890;2022-12-26T17:51:50;12.80;98.40
42145;DHT22;27813;43.516;11.890;2022-12-26T17:56:29;12.90;98.40
42145;DHT22;27813;43.516;11.890;2022-12-26T18:00:34;12.90;98.50
42145;DHT22;27813;43.516;11.890;2022-12-26T18:04:38;12.90;98.50
42145;DHT22;27813;43.516;11.890;2022-12-26T18:08:45;12.90;98.50
42145;DHT22;27813;43.516;11.890;2022-12-26T18:12:50;13.00;98.50
42145;DHT22;27813;43.516;11.890;2022-12-26T18:16:54;13.00;98.50
42145;DHT22;27813;43.516;11.890;2022-12-26T18:20:59;12.90;98.50
42145;DHT22;27813;43.516;11.890;2022-12-26T18:25:05;12.90;98.50
42145;DHT22;27813;43.516;11.890;2022-12-26T18:29:11;12.90;98.50
42145;DHT22;27813;43.516;11.890;2022-12-26T18:33:15;12.90;98.50
42145;DHT22;27813;43.516;11.890;2022-12-26T18:37:20;12.90;98.50
42145;DHT22;27813;43.516;11.890;2022-12-26T18:41:26;12.90;98.50
42145;DHT22;27813;43.516;11.890;2022-12-26T18:45:30;12.90;98.50
42145;DHT22;27813;43.516;11.890;2022-12-26T18:49:35;12.90;98.60
42145;DHT22;27813;43.516;11.890;2022-12-26T18:53:40;12.90;98.50
42145;DHT22;27813;43.516;11.890;2022-12-26T18:57:44;12.90;98.50
42145;DHT22;27813;43.516;11.890;2022-12-26T19:01:50;12.90;98.50
42145;DHT22;27813;43.516;11.890;2022-12-26T19:05:54;12.90;98.60
42145;DHT22;27813;43.516;11.890;2022-12-26T19:09:58;12.90;98.60
42145;DHT22;27813;43.516;11.890;2022-12-26T19:14:06;12.90;98.60
42145;DHT22;27813;43.516;11.890;2022-12-26T19:18:10;12.90;98.50
42145;DHT22;27813;43.516;11.890;2022-12-26T19:22:15;12.90;98.50
42145;DHT22;27813;43.516;11.890;2022-12-26T19:26:22;12.90;98.50
42145;DHT22;27813;43.516;11.890;2022-12-26T19:30:26;12.90;98.60
42145;DHT22;27813;43.516;11.890;2022-12-26T19:34:30;12.80;98.50
42145;DHT22;27813;43.516;11.890;2022-12-26T19:38:37;12.90;98.60
42145;DHT22;27813;43.516;11.890;2022-12-26T19:42:44;12.80;98.60
42145;DHT22;27813;43.516;11.890;2022-12-26T19:46:50;12.80;98.60
42145;DHT22;27813;43.516;11.890;2022-12-26T19:51:16;12.80;98.50
42145;DHT22;27813;43.516;11.890;2022-12-26T19:55:21;12.80;98.50
42145;DHT22;27813;43.516;11.890;2022-12-26T19:59:25;12.80;98.50
42145;DHT22;27813;43.516;11.890;2022-12-26T20:03:35;12.70;98.50
42145;DHT22;27813;43.516;11.890;2022-12-26T20:07:42;12.70;98.50
42145;DHT22;27813;43.516;11.890;2022-12-26T20:11:53;12.80;98.50
42145;DHT22;27813;43.516;11.890;2022-12-26T20:16:05;12.70;98.50
42145;DHT22;27813;43.516;11.890;2022-12-26T20:20:35;12.70;98.50
42145;DHT22;27813;43.516;11.890;2022-12-26T20:24:39;12.70;98.50
42145;DHT22;27813;43.516;11.890;2022-12-26T20:28:47;12.70;98.50
42145;DHT22;27813;43.516;11.890;2022-12-26T20:32:55;12.70;98.50
42145;DHT22;27813;43.516;11.890;2022-12-26T20:37:02;12.70;98.50
42145;DHT22;27813;43.516;11.890;2022-12-26T20:41:07;12.70;98.50
42145;DHT22;27813;43.516;11.890;2022-12-26T20:45:18;12.70;98.50
42145;DHT22;27813;43.516;11.890;2022-12-26T20:49:25;12.70;98.50
42145;DHT22;27813;43.516;11.890;2022-12-26T20:53:31;12.70;98.50
42145;DHT22;27813;43.516;11.890;2022-12-26T20:57:38;12.70;98.50
42145;DHT22;27813;43.516;11.890;2022-12-26T21:01:44;12.70;98.50
42145;DHT22;27813;43.516;11.890;2022-12-26T21:05:51;12.70;98.50
42145;DHT22;27813;43.516;11.890;2022-12-26T21:09:56;12.70;98.50
42145;DHT22;27813;43.516;11.890;2022-12-26T21:14:15;12.70;98.50
42145;DHT22;27813;43.516;11.890;2022-12-26T21:18:22;12.70;98.50
42145;DHT22;27813;43.516;11.890;2022-12-26T21:22:27;12.70;98.50
42145;DHT22;27813;43.516;11.890;2022-12-26T21:26:36;12.70;98.50
42145;DHT22;27813;43.516;11.890;2022-12-26T21:30:47;12.70;98.50
42145;DHT22;27813;43.516;11.890;2022-12-26T21:35:05;12.70;98.50
42145;DHT22;27813;43.516;11.890;2022-12-26T21:39:11;12.70;98.50
42145;DHT22;27813;43.516;11.890;2022-12-26T21:43:18;12.60;98.50
42145;DHT22;27813;43.516;11.890;2022-12-26T21:47:35;12.60;98.50
42145;DHT22;27813;43.516;11.890;2022-12-26T21:51:43;12.60;98.50
42145;DHT22;27813;43.516;11.890;2022-12-26T21:55:54;12.50;98.40
42145;DHT22;27813;43.516;11.890;2022-12-26T21:59:59;12.60;98.40
42145;DHT22;27813;43.516;11.890;2022-12-26T22:04:10;12.60;98.40
42145;DHT22;27813;43.516;11.890;2022-12-26T22:08:29;12.50;98.40
42145;DHT22;27813;43.516;11.890;2022-12-26T22:12:44;12.50;98.40
42145;DHT22;27813;43.516;11.890;2022-12-26T22:17:01;12.50;98.40
42145;DHT22;27813;43.516;11.890;2022-12-26T22:21:17;12.50;98.40
42145;DHT22;27813;43.516;11.890;2022-12-26T22:25:24;12.50;98.50
42145;DHT22;27813;43.516;11.890;2022-12-26T22:29:29;12.50;98.50
42145;DHT22;27813;43.516;11.890;2022-12-26T22:33:39;12.50;98.50
42145;DHT22;27813;43.516;11.890;2022-12-26T22:37:47;12.50;98.50
42145;DHT22;27813;43.516;11.890;2022-12-26T22:41:51;12.50;98.50
42145;DHT22;27813;43.516;11.890;2022-12-26T22:46:05;12.50;98.50
42145;DHT22;27813;43.516;11.890;2022-12-26T22:50:14;12.50;98.50
42145;DHT22;27813;43.516;11.890;2022-12-26T22:54:19;12.50;98.50
42145;DHT22;27813;43.516;11.890;2022-12-26T22:58:24;12.50;98.50
42145;DHT22;27813;43.516;11.890;2022-12-26T23:02:28;12.50;98.50
42145;DHT22;27813;43.516;11.890;2022-12-26T23:06:34;12.50;98.40
42145;DHT22;27813;43.516;11.890;2022-12-26T23:10:42;12.50;98.50
42145;DHT22;27813;43.516;11.890;2022-12-26T23:14:49;12.50;98.50
42145;DHT22;27813;43.516;11.890;2022-12-26T23:18:59;12.50;98.50
42145;DHT22;27813;43.516;11.890;2022-12-26T23:23:42;12.40;98.50
42145;DHT22;27813;43.516;11.890;2022-12-26T23:27:47;12.40;98.40
42145;DHT22;27813;43.516;11.890;2022-12-26T23:37:06;12.40;98.40
42145;DHT22;27813;43.516;11.890;2022-12-26T23:41:11;12.40;98.50
42145;DHT22;27813;43.516;11.890;2022-12-26T23:45:15;12.40;98.40
42145;DHT22;27813;43.516;11.890;2022-12-26T23:49:21;12.40;98.40
42145;DHT22;27813;43.516;11.890;2022-12-26T23:53:25;12.30;98.40
42145;DHT22;27813;43.516;11.890;2022-12-26T23:57:29;12.20;98.30
